createdAt,value
2023-01-19T00:03:04.564Z,25.73
2023-01-19T00:08:14.925Z,23.02
2023-01-19T00:13:17.395Z,22.08
2023-01-19T00:18:19.752Z,26.80
2023-01-19T00:23:22.007Z,20.10
2023-01-19T00:28:24.053Z,29.23
2023-01-19T00:33:26.175Z,23.75
2023-01-19T00:38:28.289Z,18.33
2023-01-19T00:43:30.407Z,21.02
2023-01-19T00:48:32.571Z,17.95
2023-01-19T00:53:34.793Z,19.33
2023-01-19T00:58:36.940Z,22.05
2023-01-19T01:03:39.037Z,20.02
2023-01-19T01:08:41.151Z,18.35
2023-01-19T01:13:44.334Z,18.58
2023-01-19T01:18:46.701Z,25.90
2023-01-19T01:23:48.834Z,17.77
2023-01-19T01:28:50.966Z,24.20
2023-01-19T01:33:53.077Z,22.92
2023-01-19T01:38:55.237Z,23.60
2023-01-19T01:43:58.989Z,25.77
2023-01-19T01:49:07.833Z,20.50
2023-01-19T01:54:26.132Z,18.08
2023-01-19T01:59:34.958Z,23.63
2023-01-19T02:04:38.525Z,22.17
2023-01-19T02:09:59.565Z,22.00
2023-01-19T02:15:01.647Z,24.75
2023-01-19T02:20:05.448Z,25.67
2023-01-19T02:25:07.850Z,24.13
2023-01-19T02:30:10.998Z,24.08
2023-01-19T02:35:13.383Z,24.52
2023-01-19T02:40:22.203Z,21.80
2023-01-19T02:45:24.725Z,27.55
2023-01-19T02:50:52.318Z,20.15
2023-01-19T02:56:03.849Z,23.52
2023-01-19T03:01:24.079Z,24.88
2023-01-19T03:06:44.788Z,27.65
2023-01-19T03:11:54.379Z,21.73
2023-01-19T03:17:02.700Z,23.20
2023-01-19T03:22:09.846Z,24.17
2023-01-19T03:27:25.511Z,18.80
2023-01-19T03:32:36.305Z,20.52
2023-01-19T03:37:43.363Z,17.20
2023-01-19T03:42:46.377Z,17.95
2023-01-19T03:47:48.855Z,19.85
2023-01-19T03:53:13.988Z,20.10
2023-01-19T03:58:16.029Z,21.48
2023-01-19T04:03:18.515Z,19.52
2023-01-19T04:08:20.561Z,19.50
2023-01-19T04:13:22.680Z,19.30
2023-01-19T04:18:24.754Z,23.77
2023-01-19T04:23:27.114Z,19.08
2023-01-19T04:28:29.633Z,18.42
2023-01-19T04:33:31.744Z,22.13
2023-01-19T04:38:33.901Z,16.00
2023-01-19T04:43:35.975Z,18.23
2023-01-19T04:48:38.056Z,24.60
2023-01-19T04:53:40.191Z,18.23
2023-01-19T04:58:42.261Z,20.23
2023-01-19T05:03:44.292Z,19.48
2023-01-19T05:08:46.367Z,18.80
2023-01-19T05:13:50.221Z,22.73
2023-01-19T05:18:53.008Z,20.20
2023-01-19T05:23:55.180Z,22.15
2023-01-19T05:28:57.387Z,24.08
2023-01-19T05:33:59.454Z,24.60
2023-01-19T05:39:01.578Z,20.13
2023-01-19T05:44:03.757Z,23.00
2023-01-19T05:49:07.503Z,22.10
2023-01-19T05:54:10.169Z,27.85
2023-01-19T05:59:13.348Z,24.98
2023-01-19T06:04:15.376Z,24.58
2023-01-19T06:09:18.394Z,22.90
2023-01-19T06:14:20.439Z,26.35
2023-01-19T06:19:22.490Z,23.50
2023-01-19T06:24:25.369Z,28.40
2023-01-19T06:29:28.744Z,31.55
2023-01-19T06:34:31.518Z,25.17
2023-01-19T06:39:33.628Z,30.23
2023-01-19T06:44:35.689Z,23.67
2023-01-19T06:49:37.771Z,26.35
2023-01-19T06:54:40.004Z,28.98
2023-01-19T06:59:42.181Z,23.90
2023-01-19T07:04:44.252Z,22.73
2023-01-19T07:09:46.320Z,30.17
2023-01-19T07:14:50.444Z,30.60
2023-01-19T07:19:52.521Z,24.90
2023-01-19T07:24:54.678Z,17.35
2023-01-19T07:29:56.884Z,26.48
2023-01-19T07:34:58.993Z,28.38
2023-01-19T07:40:01.274Z,31.02
2023-01-19T07:45:05.867Z,28.02
2023-01-19T07:50:08.685Z,30.10
2023-01-19T07:55:10.840Z,30.27
2023-01-19T08:00:14.574Z,23.88
2023-01-19T08:05:18.473Z,27.08
2023-01-19T08:10:23.063Z,30.40
2023-01-19T08:15:25.793Z,15.25
2023-01-19T08:20:29.016Z,28.42
2023-01-19T08:25:39.595Z,29.50
2023-01-19T08:30:44.387Z,23.95
2023-01-19T08:35:50.367Z,27.98
2023-01-19T08:40:52.423Z,27.45
2023-01-19T08:45:56.534Z,29.08
2023-01-19T08:50:59.433Z,25.15
2023-01-19T08:56:02.332Z,32.50
2023-01-19T09:01:04.694Z,33.38
2023-01-19T09:06:07.872Z,32.63
2023-01-19T09:11:11.524Z,32.45
2023-01-19T09:16:15.275Z,29.70
2023-01-19T09:21:18.652Z,42.15
2023-01-19T09:26:22.408Z,34.78
2023-01-19T09:31:24.671Z,36.50
2023-01-19T09:36:26.782Z,42.45
2023-01-19T09:41:29.759Z,36.65
2023-01-19T09:46:41.754Z,48.53
2023-01-19T09:51:47.202Z,40.53
2023-01-19T09:56:52.693Z,50.08
2023-01-19T10:02:25.651Z,43.20
2023-01-19T10:07:55.043Z,46.85
2023-01-19T10:13:19.243Z,47.42
2023-01-19T10:18:26.737Z,42.45
2023-01-19T10:23:45.753Z,37.63
2023-01-19T10:28:51.394Z,48.90
2023-01-19T10:33:54.600Z,38.28
2023-01-19T10:38:56.716Z,44.35
2023-01-19T10:44:02.024Z,43.67
2023-01-19T10:49:04.980Z,50.97
2023-01-19T10:54:13.272Z,45.45
2023-01-19T10:59:34.902Z,40.42
2023-01-19T11:04:36.997Z,40.47
2023-01-19T11:09:39.050Z,45.90
2023-01-19T11:14:41.224Z,45.75
2023-01-19T11:19:43.547Z,44.08
2023-01-19T11:24:45.741Z,40.55
2023-01-19T11:30:00.914Z,45.92
2023-01-19T11:35:30.810Z,48.83
2023-01-19T11:40:35.290Z,52.80
2023-01-19T11:45:37.731Z,53.10
2023-01-19T11:50:43.982Z,45.08
2023-01-19T11:55:51.018Z,55.72
2023-01-19T12:01:23.191Z,30.40
2023-01-19T12:06:33.075Z,58.17
2023-01-19T12:11:40.621Z,56.38
2023-01-19T12:16:44.110Z,60.30
2023-01-19T12:21:49.404Z,54.90
2023-01-19T12:26:58.886Z,55.10
2023-01-19T12:32:22.036Z,51.72
2023-01-19T12:37:39.276Z,51.08
2023-01-19T12:42:47.114Z,49.83
2023-01-19T12:47:54.051Z,52.33
2023-01-19T12:53:02.001Z,56.10
2023-01-19T12:58:12.958Z,54.05
2023-01-19T13:03:17.808Z,51.63
2023-01-19T13:08:22.666Z,43.45
2023-01-19T13:13:24.666Z,56.85
2023-01-19T13:18:29.905Z,65.03
2023-01-19T13:23:47.218Z,51.08
2023-01-19T13:28:53.318Z,52.05
2023-01-19T13:33:58.300Z,54.17
2023-01-19T13:39:04.071Z,47.35
2023-01-19T13:44:19.275Z,46.58
2023-01-19T13:49:30.486Z,55.85
2023-01-19T13:54:32.561Z,55.70
2023-01-19T13:59:34.634Z,51.15
2023-01-19T14:04:36.791Z,57.00
2023-01-19T14:09:39.951Z,59.58
2023-01-19T14:14:45.200Z,30.42
2023-01-19T14:19:51.464Z,44.10
2023-01-19T14:24:53.516Z,49.85
2023-01-19T14:30:19.012Z,45.85
2023-01-19T14:35:25.539Z,46.45
2023-01-19T14:40:27.743Z,45.70
2023-01-19T14:45:42.820Z,47.30
2023-01-19T14:51:02.071Z,41.85
2023-01-19T14:56:06.912Z,40.75
2023-01-19T15:01:09.343Z,37.63
2023-01-19T15:06:17.045Z,31.83
2023-01-19T15:11:28.583Z,49.63
2023-01-19T15:16:34.242Z,44.85
2023-01-19T15:21:40.765Z,35.25
2023-01-19T15:26:43.348Z,27.73
2023-01-19T15:31:45.592Z,32.97
2023-01-19T15:36:47.668Z,24.50
2023-01-19T15:41:49.707Z,27.17
2023-01-19T15:46:54.480Z,26.27
2023-01-19T15:51:57.071Z,29.52
2023-01-19T15:56:59.268Z,16.13
2023-01-19T16:02:01.848Z,24.08
2023-01-19T16:07:04.091Z,25.67
2023-01-19T16:12:06.404Z,29.25
2023-01-19T16:17:08.550Z,22.80
2023-01-19T16:22:12.079Z,25.33
2023-01-19T16:27:14.158Z,27.13
2023-01-19T16:32:17.065Z,31.75
2023-01-19T16:37:19.171Z,35.88
2023-01-19T16:42:21.451Z,27.55
2023-01-19T16:47:23.545Z,26.10
2023-01-19T16:52:25.632Z,21.20
2023-01-19T16:57:28.828Z,26.58
2023-01-19T17:02:31.029Z,24.33
2023-01-19T17:07:33.166Z,25.30
2023-01-19T17:12:35.291Z,24.00
2023-01-19T17:17:38.159Z,24.63
2023-01-19T17:22:40.528Z,30.80
2023-01-19T17:27:42.590Z,18.58
2023-01-19T17:32:44.693Z,17.13
2023-01-19T17:37:46.803Z,28.73
2023-01-19T17:42:49.027Z,24.77
2023-01-19T17:47:51.270Z,28.17
2023-01-19T17:52:53.340Z,36.90
2023-01-19T17:57:55.494Z,36.60
2023-01-19T18:02:57.784Z,38.83
2023-01-19T18:08:00.581Z,42.80
2023-01-19T18:13:02.760Z,32.08
2023-01-19T18:18:05.030Z,36.88
2023-01-19T18:23:07.216Z,46.80
2023-01-19T18:28:09.572Z,38.42
2023-01-19T18:33:11.661Z,40.13
2023-01-19T18:38:14.074Z,49.72
2023-01-19T18:43:16.257Z,39.67
2023-01-19T18:48:18.649Z,48.88
2023-01-19T18:53:21.427Z,50.95
2023-01-19T18:58:24.750Z,46.40
2023-01-19T19:03:27.909Z,55.17
2023-01-19T19:08:30.127Z,56.38
2023-01-19T19:13:32.173Z,55.88
2023-01-19T19:18:35.511Z,56.30
2023-01-19T19:23:38.788Z,65.80
2023-01-19T19:28:40.948Z,52.92
2023-01-19T19:33:43.062Z,55.20
2023-01-19T19:38:47.580Z,60.17
2023-01-19T19:43:50.514Z,52.28
2023-01-19T19:48:53.485Z,48.38
2023-01-19T19:53:58.768Z,52.17
2023-01-19T19:59:01.278Z,50.00
2023-01-19T20:04:08.790Z,45.38
2023-01-19T20:09:14.860Z,49.97
2023-01-19T20:14:16.974Z,51.58
2023-01-19T20:19:19.065Z,48.28
2023-01-19T20:24:21.352Z,50.38
2023-01-19T20:29:23.665Z,51.65
2023-01-19T20:34:32.093Z,45.70
2023-01-19T20:39:36.851Z,49.30
2023-01-19T20:44:39.517Z,41.58
2023-01-19T20:49:42.517Z,50.20
2023-01-19T20:54:44.604Z,46.53
2023-01-19T20:59:46.637Z,53.60
2023-01-19T21:04:48.860Z,50.88
2023-01-19T21:09:50.889Z,55.65
2023-01-19T21:14:52.931Z,55.35
2023-01-19T21:19:55.155Z,49.95
2023-01-19T21:24:57.274Z,58.67
2023-01-19T21:30:00.983Z,66.25
2023-01-19T21:35:03.102Z,61.95
2023-01-19T21:40:06.671Z,57.15
2023-01-19T21:45:08.962Z,60.28
2023-01-19T21:50:11.461Z,55.33
2023-01-19T21:55:13.704Z,35.85
2023-01-19T22:00:16.649Z,49.85
2023-01-19T22:05:18.788Z,50.20
2023-01-19T22:10:20.977Z,54.90
2023-01-19T22:15:23.027Z,53.83
2023-01-19T22:20:25.137Z,53.30
2023-01-19T22:25:28.060Z,59.65
2023-01-19T22:30:30.392Z,55.42
2023-01-19T22:35:32.471Z,59.47
2023-01-19T22:40:34.598Z,46.58
2023-01-19T22:45:41.497Z,31.25
2023-01-19T22:50:43.586Z,43.75
2023-01-19T22:55:45.595Z,50.88
2023-01-19T23:00:47.784Z,57.58
2023-01-19T23:05:49.887Z,49.28
2023-01-19T23:10:51.937Z,58.30
2023-01-19T23:15:54.209Z,48.45
2023-01-19T23:20:56.552Z,48.10
2023-01-19T23:26:04.169Z,53.75
2023-01-19T23:31:34.403Z,47.78
2023-01-19T23:36:39.421Z,43.77
2023-01-19T23:41:41.751Z,55.25
2023-01-19T23:46:44.114Z,49.45
2023-01-19T23:51:46.182Z,49.88
2023-01-19T23:56:48.335Z,48.50
